Time;durP1;ratioP1;P1;durP2;ratioP2;P2;SDS_P1;SDS_P2;PMS_P1;PMS_P2;Temp;Humidity;BMP_temperature;BMP_pressure;BME280_temperature;BME280_humidity;BME280_pressure;Samples;Min_cycle;Max_cycle;Signal;HPM_P1;HPM_P2
2022/09/21 00:01:17;;;;;;;6.47;4.20;;;7.10;99.90;;;;;;6311873;22;20416;-66
2022/09/21 00:03:50;;;;;;;7.13;3.60;;;7.10;99.90;;;;;;6311769;22;20897;-66
2022/09/21 00:06:21;;;;;;;4.30;3.73;;;7.10;99.90;;;;;;6311159;22;20864;-66
2022/09/21 00:08:48;;;;;;;6.27;4.57;;;7.00;1.00;;;;;;6311589;22;20460;-66
2022/09/21 00:11:18;;;;;;;9.33;4.73;;;7.00;74.90;;;;;;6311414;22;20486;-66
2022/09/21 00:13:46;;;;;;;5.87;4.20;;;7.00;99.90;;;;;;6310962;22;20416;-66
2022/09/21 00:16:15;;;;;;;5.07;4.20;;;7.00;99.90;;;;;;6310332;22;20850;-66
2022/09/21 00:18:42;;;;;;;8.33;4.73;;;6.90;99.90;;;;;;6311303;22;20477;-66
2022/09/21 00:21:12;;;;;;;5.23;4.60;;;6.90;99.90;;;;;;6310667;22;20858;-66
2022/09/21 00:23:44;;;;;;;5.83;3.77;;;6.90;99.90;;;;;;6310854;22;20386;-67
2022/09/21 00:26:16;;;;;;;7.13;4.50;;;6.80;1.00;;;;;;6310897;22;20804;-66
2022/09/21 00:28:44;;;;;;;7.20;4.63;;;6.80;1.00;;;;;;6311450;22;20499;-66
2022/09/21 00:31:16;;;;;;;9.27;4.70;;;6.80;1.00;;;;;;6311162;22;20419;-66
2022/09/21 00:33:44;;;;;;;6.80;4.20;;;6.90;24.30;;;;;;6310748;22;20426;-66
2022/09/21 00:36:12;;;;;;;7.13;3.93;;;6.80;1.00;;;;;;6310817;22;20816;-66
2022/09/21 00:38:40;;;;;;;5.07;4.00;;;6.80;10.40;;;;;;6310607;22;20391;-66
2022/09/21 00:41:11;;;;;;;6.50;4.40;;;6.70;84.00;;;;;;6311557;22;20387;-66
2022/09/21 00:43:42;;;;;;;12.90;5.50;;;6.70;1.00;;;;;;6310896;22;20423;-66
2022/09/21 00:46:27;;;;;;;8.83;4.77;;;6.70;1.00;;;;;;6310902;22;20419;-66
2022/09/21 00:48:54;;;;;;;10.47;4.90;;;6.60;99.90;;;;;;6310186;22;20519;-66
2022/09/21 00:51:22;;;;;;;11.80;5.50;;;6.60;99.90;;;;;;6311064;22;20420;-66
2022/09/21 00:53:53;;;;;;;6.70;4.70;;;6.60;1.00;;;;;;6310945;22;20416;-66
2022/09/21 00:56:26;;;;;;;6.90;4.53;;;6.50;1.00;;;;;;6310900;22;20420;-66
2022/09/21 00:58:54;;;;;;;6.97;4.60;;;6.50;94.30;;;;;;6311075;22;20416;-66
2022/09/21 01:01:23;;;;;;;6.37;4.70;;;6.40;99.90;;;;;;6311143;22;20424;-66
2022/09/21 01:03:56;;;;;;;9.07;4.47;;;6.40;99.90;;;;;;6309579;22;20427;-66
2022/09/21 01:06:25;;;;;;;6.60;4.10;;;6.40;99.90;;;;;;6311008;22;20427;-66
2022/09/21 01:08:55;;;;;;;8.53;4.63;;;6.40;99.90;;;;;;6311043;22;20468;-66
2022/09/21 01:11:34;;;;;;;6.80;4.47;;;6.30;99.90;;;;;;6311306;22;20806;-66
2022/09/21 01:14:32;;;;;;;12.07;5.57;;;6.20;99.90;;;;;;6311097;22;20518;-66
2022/09/21 01:17:06;;;;;;;5.70;4.90;;;6.20;99.90;;;;;;6311528;22;20466;-66
2022/09/21 01:20:04;;;;;;;7.17;5.47;;;6.20;99.90;;;;;;6310618;22;20420;-66
2022/09/21 01:22:48;;;;;;;8.30;5.00;;;6.30;99.90;;;;;;6310176;22;20463;-66
2022/09/21 01:25:28;;;;;;;8.23;5.27;;;6.20;67.10;;;;;;6310470;22;20456;-66
2022/09/21 01:28:08;;;;;;;11.20;6.00;;;6.20;99.90;;;;;;6310734;22;20421;-66
2022/09/21 01:30:40;;;;;;;6.63;5.60;;;6.10;99.90;;;;;;6310947;22;20458;-66
2022/09/21 01:33:14;;;;;;;7.80;5.03;;;6.10;99.90;;;;;;6311165;22;20748;-66
2022/09/21 01:35:47;;;;;;;9.23;5.70;;;6.10;99.90;;;;;;6309931;22;20420;-66
2022/09/21 01:38:21;;;;;;;10.77;6.00;;;6.00;99.90;;;;;;6309706;22;20395;-66
2022/09/21 01:40:54;;;;;;;6.50;5.10;;;6.00;99.90;;;;;;6310706;22;20712;-66
2022/09/21 01:43:32;;;;;;;7.17;5.83;;;6.00;99.90;;;;;;6311339;22;20383;-66
2022/09/21 01:46:04;;;;;;;8.70;5.90;;;6.00;99.90;;;;;;6309651;22;20415;-66
2022/09/21 01:48:34;;;;;;;9.60;4.70;;;6.00;99.90;;;;;;6310289;22;20418;-66
2022/09/21 01:51:09;;;;;;;7.77;4.70;;;5.90;99.90;;;;;;6311497;22;20470;-66
2022/09/21 01:53:43;;;;;;;8.67;5.30;;;5.90;99.90;;;;;;6310273;22;20446;-66
2022/09/21 01:56:15;;;;;;;6.93;5.10;;;5.90;99.90;;;;;;6310015;22;20419;-66
2022/09/21 01:58:46;;;;;;;8.30;5.83;;;5.90;99.90;;;;;;6310495;22;20423;-66
2022/09/21 02:01:19;;;;;;;5.37;4.47;;;5.90;99.90;;;;;;6311072;22;20395;-66
2022/09/21 02:03:52;;;;;;;9.53;5.40;;;5.80;99.90;;;;;;6310192;22;20383;-66
2022/09/21 02:06:20;;;;;;;7.70;6.60;;;5.80;99.90;;;;;;6310120;22;20892;-66
2022/09/21 02:08:47;;;;;;;11.37;6.33;;;5.80;99.90;;;;;;6310378;22;20407;-66
2022/09/21 02:11:19;;;;;;;8.60;6.30;;;5.80;99.90;;;;;;6310929;22;20426;-66
2022/09/21 02:13:52;;;;;;;9.47;6.43;;;5.80;99.90;;;;;;6310208;22;20419;-66
2022/09/21 02:16:34;;;;;;;9.70;6.20;;;5.80;99.90;;;;;;6309696;22;20541;-66
2022/09/21 02:19:12;;;;;;;12.07;7.30;;;5.80;99.90;;;;;;6310446;22;20932;-66
2022/09/21 02:22:02;;;;;;;10.20;6.63;;;5.70;99.90;;;;;;6310363;22;20395;-66
2022/09/21 02:24:38;;;;;;;7.40;6.23;;;5.70;99.90;;;;;;6310467;22;20430;-66
2022/09/21 02:27:09;;;;;;;13.93;5.70;;;5.60;99.90;;;;;;6309491;22;20518;-66
2022/09/21 02:29:47;;;;;;;9.30;6.30;;;5.60;99.90;;;;;;6309638;22;20511;-66
2022/09/21 02:32:24;;;;;;;8.53;6.10;;;5.50;99.90;;;;;;6309268;22;20454;-66
2022/09/21 02:34:57;;;;;;;7.57;6.13;;;5.50;99.90;;;;;;6310563;22;20833;-66
2022/09/21 02:37:32;;;;;;;9.63;6.60;;;5.50;99.90;;;;;;6309793;22;20418;-66
2022/09/21 02:40:03;;;;;;;8.43;5.80;;;5.40;99.90;;;;;;6310148;22;20440;-66
2022/09/21 02:42:40;;;;;;;7.30;5.87;;;5.40;99.90;;;;;;6311106;22;20417;-66
2022/09/21 02:45:11;;;;;;;9.10;5.67;;;5.50;99.90;;;;;;6310231;22;20415;-66
2022/09/21 02:47:46;;;;;;;11.10;6.80;;;5.40;99.90;;;;;;6309578;22;20462;-66
2022/09/21 02:50:20;;;;;;;9.20;6.10;;;5.40;99.90;;;;;;6309674;22;20455;-66
2022/09/21 02:52:47;;;;;;;10.17;6.57;;;5.40;99.90;;;;;;6309751;22;20448;-66
2022/09/21 02:55:17;;;;;;;7.33;5.47;;;5.40;99.90;;;;;;6310361;22;20541;-66
2022/09/21 02:57:47;;;;;;;9.47;5.47;;;5.30;99.90;;;;;;6309817;22;20486;-65
2022/09/21 03:00:17;;;;;;;7.30;6.00;;;5.30;99.90;;;;;;6309525;22;20496;-66
2022/09/21 03:02:46;;;;;;;7.67;5.63;;;5.30;99.90;;;;;;6309686;22;20413;-66
2022/09/21 03:05:20;;;;;;;8.27;6.03;;;5.30;99.90;;;;;;6310006;22;20416;-66
2022/09/21 03:07:47;;;;;;;5.90;5.30;;;5.30;99.90;;;;;;6310026;22;20416;-66
2022/09/21 03:10:14;;;;;;;6.80;6.10;;;5.30;99.90;;;;;;6309408;22;20447;-66
2022/09/21 03:12:45;;;;;;;13.07;6.17;;;5.30;99.90;;;;;;6309722;22;20543;-65
2022/09/21 03:15:15;;;;;;;6.87;5.53;;;5.20;99.90;;;;;;6309012;22;20418;-65
2022/09/21 03:17:42;;;;;;;8.27;6.47;;;5.10;99.90;;;;;;6309286;22;20531;-65
2022/09/21 03:20:11;;;;;;;7.90;5.10;;;5.10;99.90;;;;;;6308317;22;20422;-66
2022/09/21 03:22:38;;;;;;;8.90;5.40;;;5.00;99.90;;;;;;6309737;22;20414;-66
2022/09/21 03:25:08;;;;;;;8.57;5.80;;;5.00;99.90;;;;;;6309894;22;20418;-65
2022/09/21 03:27:35;;;;;;;7.83;5.80;;;5.10;99.90;;;;;;6311750;22;20420;-65
2022/09/21 03:30:02;;;;;;;7.17;5.30;;;5.00;99.90;;;;;;6310352;22;20425;-65
2022/09/21 03:32:29;;;;;;;7.50;5.97;;;5.00;99.90;;;;;;6311288;22;20415;-65
2022/09/21 03:34:56;;;;;;;6.53;5.80;;;4.90;99.90;;;;;;6311944;22;20852;-65
2022/09/21 03:37:25;;;;;;;9.13;7.27;;;5.00;99.90;;;;;;6312097;22;20701;-66
2022/09/21 03:39:52;;;;;;;7.80;6.00;;;5.00;99.90;;;;;;6310640;22;20446;-67
2022/09/21 03:42:19;;;;;;;7.03;4.93;;;4.90;99.90;;;;;;6311405;22;20721;-67
2022/09/21 03:44:47;;;;;;;8.17;6.00;;;4.90;99.90;;;;;;6311442;22;20766;-67
2022/09/21 03:47:16;;;;;;;8.97;5.97;;;4.90;99.90;;;;;;6311539;22;20417;-66
2022/09/21 03:49:48;;;;;;;6.73;6.03;;;4.90;99.90;;;;;;6310877;22;20424;-67
2022/09/21 03:52:15;;;;;;;9.60;6.40;;;4.80;99.90;;;;;;6310631;22;20712;-67
2022/09/21 03:54:44;;;;;;;8.07;5.87;;;4.80;99.90;;;;;;6311441;22;20434;-67
2022/09/21 03:57:11;;;;;;;10.70;5.80;;;4.80;99.90;;;;;;6311601;22;20790;-67
2022/09/21 03:59:38;;;;;;;8.13;6.07;;;4.80;99.90;;;;;;6310639;22;20518;-67
2022/09/21 04:02:06;;;;;;;8.53;6.10;;;4.90;99.90;;;;;;6310985;22;20689;-66
2022/09/21 04:04:33;;;;;;;8.37;6.30;;;4.90;99.90;;;;;;6311589;22;20420;-66
2022/09/21 04:07:00;;;;;;;8.83;6.20;;;4.90;99.90;;;;;;6311371;22;20423;-66
2022/09/21 04:09:28;;;;;;;7.23;6.10;;;4.90;99.90;;;;;;6310196;22;20418;-66
2022/09/21 04:11:56;;;;;;;8.00;5.97;;;4.90;99.90;;;;;;6310842;22;20527;-66
2022/09/21 04:14:23;;;;;;;8.20;6.30;;;4.90;99.90;;;;;;6310944;22;20427;-66
2022/09/21 04:16:51;;;;;;;9.50;6.20;;;4.80;99.90;;;;;;6311085;22;20422;-67
2022/09/21 04:19:21;;;;;;;8.90;6.60;;;4.80;99.90;;;;;;6311703;22;20725;-67
2022/09/21 04:21:50;;;;;;;8.80;6.60;;;4.80;99.90;;;;;;6310066;22;20401;-66
2022/09/21 04:24:18;;;;;;;7.80;5.83;;;4.80;99.90;;;;;;6311037;22;20473;-67
2022/09/21 04:26:46;;;;;;;7.27;5.97;;;4.80;99.90;;;;;;6310998;22;20424;-67
2022/09/21 04:29:15;;;;;;;13.67;6.60;;;4.70;99.90;;;;;;6310620;22;20444;-67
2022/09/21 04:31:42;;;;;;;9.03;7.10;;;4.70;99.90;;;;;;6311224;22;20424;-67
2022/09/21 04:34:13;;;;;;;9.00;7.00;;;4.70;99.90;;;;;;6310675;22;20814;-67
2022/09/21 04:36:40;;;;;;;7.90;6.30;;;4.70;99.90;;;;;;6310680;22;20513;-67
2022/09/21 04:39:08;;;;;;;12.30;6.40;;;4.70;99.90;;;;;;6309891;22;20811;-67
2022/09/21 04:41:35;;;;;;;7.57;6.07;;;4.60;99.90;;;;;;6310316;22;20423;-67
2022/09/21 04:44:03;;;;;;;7.97;5.90;;;4.60;99.90;;;;;;6309844;22;20448;-67
2022/09/21 04:46:34;;;;;;;7.33;5.63;;;4.50;99.90;;;;;;6310737;22;20691;-67
2022/09/21 04:49:02;;;;;;;9.00;7.30;;;4.50;99.90;;;;;;6310227;22;20939;-67
2022/09/21 04:51:29;;;;;;;8.90;5.93;;;4.50;99.90;;;;;;6309121;22;20923;-67
2022/09/21 04:53:58;;;;;;;8.10;6.43;;;4.50;99.90;;;;;;6309513;22;20448;-67
2022/09/21 04:56:25;;;;;;;8.30;5.63;;;4.50;99.90;;;;;;6308059;22;20420;-67
2022/09/21 04:58:52;;;;;;;7.40;5.57;;;4.50;99.90;;;;;;6309062;22;20443;-67
2022/09/21 05:01:19;;;;;;;6.87;5.80;;;4.50;99.90;;;;;;6308697;22;20425;-67
2022/09/21 05:03:48;;;;;;;8.17;5.60;;;4.40;99.90;;;;;;6307678;22;20520;-67
2022/09/21 05:06:15;;;;;;;7.17;6.00;;;4.40;99.90;;;;;;6308875;22;20417;-67
2022/09/21 05:11:28;;;;;;;7.80;6.60;;;4.40;99.90;;;;;;6308526;22;20765;-67
2022/09/21 05:13:55;;;;;;;8.00;6.60;;;4.50;99.90;;;;;;6309991;22;20442;-67
2022/09/21 05:16:22;;;;;;;8.67;7.20;;;4.40;99.90;;;;;;6309392;22;20704;-67
2022/09/21 05:18:54;;;;;;;10.33;7.60;;;4.40;99.90;;;;;;6309183;22;20420;-67
2022/09/21 05:21:22;;;;;;;10.33;8.07;;;4.40;99.90;;;;;;6308628;22;20426;-67
2022/09/21 05:23:49;;;;;;;9.30;8.20;;;4.30;99.90;;;;;;6309287;22;20458;-66
2022/09/21 05:26:17;;;;;;;11.83;8.90;;;4.30;99.90;;;;;;6309809;22;20448;-66
2022/09/21 05:28:45;;;;;;;11.40;7.93;;;4.30;99.90;;;;;;6309608;22;20849;-66
2022/09/21 05:31:27;;;;;;;9.60;8.00;;;4.30;99.90;;;;;;6310134;22;20900;-66
2022/09/21 05:34:04;;;;;;;10.47;7.60;;;4.30;99.90;;;;;;6310327;22;20792;-66
2022/09/21 05:36:42;;;;;;;11.00;7.00;;;4.30;99.90;;;;;;6310274;22;20712;-66
2022/09/21 05:39:10;;;;;;;8.67;7.07;;;4.30;99.90;;;;;;6310229;22;20446;-66
2022/09/21 05:41:38;;;;;;;9.13;6.63;;;4.30;99.90;;;;;;6309819;22;20453;-67
2022/09/21 05:44:12;;;;;;;10.43;7.30;;;4.30;99.90;;;;;;6307437;22;20703;-69
2022/09/21 05:46:41;;;;;;;9.37;6.60;;;4.40;99.90;;;;;;6308704;22;20498;-70
2022/09/21 05:49:18;;;;;;;9.07;7.97;;;4.50;99.90;;;;;;6307860;22;20423;-70
2022/09/21 05:51:55;;;;;;;11.20;7.27;;;4.60;99.90;;;;;;6307026;22;20431;-70
2022/09/21 05:54:33;;;;;;;8.83;6.23;;;4.80;99.90;;;;;;6307774;22;20452;-71
2022/09/21 05:57:09;;;;;;;8.80;6.90;;;4.80;99.90;;;;;;6310146;22;20680;-70
2022/09/21 05:59:48;;;;;;;9.63;6.90;;;5.00;99.90;;;;;;6309841;22;20430;-70
2022/09/21 06:02:26;;;;;;;8.70;5.93;;;5.10;99.90;;;;;;6307406;22;20420;-70
2022/09/21 06:04:57;;;;;;;8.10;6.50;;;5.30;99.90;;;;;;6308581;22;20711;-70
2022/09/21 06:07:27;;;;;;;12.47;6.90;;;5.40;99.90;;;;;;6309977;22;20728;-70
2022/09/21 06:09:54;;;;;;;10.50;6.73;;;5.50;99.90;;;;;;6308571;22;20434;-70
2022/09/21 06:12:21;;;;;;;10.60;7.37;;;5.60;99.90;;;;;;6309235;22;20419;-69
2022/09/21 06:14:48;;;;;;;8.13;6.73;;;5.70;99.90;;;;;;6309583;22;20553;-69
2022/09/21 06:17:16;;;;;;;9.67;7.50;;;5.80;99.90;;;;;;6309929;22;20393;-69
2022/09/21 06:19:46;;;;;;;16.23;8.27;;;5.90;99.90;;;;;;6310328;22;20489;-69
2022/09/21 06:22:15;;;;;;;12.47;8.67;;;6.30;99.90;;;;;;6310056;22;20657;-69
2022/09/21 06:24:44;;;;;;;10.03;8.27;;;6.40;99.90;;;;;;6308105;22;20881;-70
2022/09/21 06:27:11;;;;;;;10.73;9.00;;;6.70;99.90;;;;;;6309731;22;21090;-70
2022/09/21 06:29:38;;;;;;;8.23;7.40;;;7.00;99.90;;;;;;6309180;22;20416;-69
2022/09/21 06:32:06;;;;;;;10.27;8.40;;;7.10;99.90;;;;;;6310411;22;20443;-69
2022/09/21 06:34:33;;;;;;;13.37;10.13;;;7.40;99.90;;;;;;6309687;22;20458;-69
2022/09/21 06:37:00;;;;;;;15.53;12.47;;;7.50;99.90;;;;;;6309570;22;20416;-69
2022/09/21 06:39:30;;;;;;;19.33;11.00;;;7.80;99.90;;;;;;6309121;22;20439;-69
2022/09/21 06:41:58;;;;;;;16.07;10.20;;;8.20;99.90;;;;;;6310713;22;20841;-69
2022/09/21 06:44:25;;;;;;;17.50;9.20;;;8.30;99.90;;;;;;6310422;22;20416;-70
2022/09/21 06:46:52;;;;;;;28.00;10.30;;;8.40;99.90;;;;;;6310526;22;20413;-70
2022/09/21 06:49:22;;;;;;;19.00;10.67;;;8.60;99.90;;;;;;6309427;22;20416;-71
2022/09/21 06:51:49;;;;;;;15.93;10.60;;;8.90;99.90;;;;;;6309145;22;20844;-71
2022/09/21 06:54:17;;;;;;;12.10;7.97;;;9.00;1.00;;;;;;6309455;22;20444;-71
2022/09/21 06:56:46;;;;;;;20.23;10.23;;;9.20;99.90;;;;;;6310125;22;20477;-71
2022/09/21 06:59:13;;;;;;;23.70;10.40;;;9.30;1.00;;;;;;6309236;22;20391;-70
2022/09/21 07:01:40;;;;;;;17.00;8.90;;;9.60;99.90;;;;;;6308884;22;20421;-71
2022/09/21 07:04:10;;;;;;;18.80;9.00;;;9.70;99.90;;;;;;6309182;22;20423;-71
2022/09/21 07:06:37;;;;;;;29.30;9.50;;;9.80;1.00;;;;;;6309499;22;20415;-71
2022/09/21 07:09:07;;;;;;;18.33;10.10;;;10.00;1.00;;;;;;6309239;22;20423;-71
2022/09/21 07:11:43;;;;;;;27.60;10.90;;;10.10;1.00;;;;;;6309019;22;20800;-71
2022/09/21 07:14:22;;;;;;;19.23;9.27;;;10.20;1.00;;;;;;6308314;22;20968;-70
2022/09/21 07:16:49;;;;;;;24.57;18.10;;;10.30;1.00;;;;;;6309431;22;20568;-70
2022/09/21 07:19:16;;;;;;;16.40;9.07;;;10.40;1.00;;;;;;6308218;22;20421;-69
2022/09/21 07:21:44;;;;;;;12.17;8.47;;;10.40;1.00;;;;;;6308553;22;20414;-69
2022/09/21 07:24:11;;;;;;;21.67;11.47;;;11.00;1.00;;;;;;6309184;22;20703;-68
2022/09/21 07:26:39;;;;;;;15.87;9.13;;;11.20;1.00;;;;;;6308760;22;20427;-68
2022/09/21 07:29:06;;;;;;;16.30;9.10;;;11.40;1.00;;;;;;6307838;22;20673;-68
2022/09/21 07:31:35;;;;;;;20.97;9.13;;;11.60;1.00;;;;;;6309437;22;20778;-67
2022/09/21 07:34:02;;;;;;;14.70;9.00;;;11.90;1.00;;;;;;6308872;22;20484;-66
2022/09/21 07:36:29;;;;;;;13.87;7.67;;;12.20;1.00;;;;;;6309039;22;20423;-66
2022/09/21 07:38:57;;;;;;;18.33;9.20;;;12.30;99.90;;;;;;6309182;22;20448;-65
2022/09/21 07:41:24;;;;;;;12.43;9.07;;;12.40;99.90;;;;;;6308547;22;20412;-65
2022/09/21 07:43:52;;;;;;;14.23;7.27;;;12.80;99.90;;;;;;6309109;22;20923;-65
2022/09/21 07:46:19;;;;;;;13.10;7.60;;;12.60;99.90;;;;;;6308785;22;20424;-65
2022/09/21 07:48:48;;;;;;;12.10;6.87;;;12.60;99.90;;;;;;6309120;22;20455;-65
2022/09/21 07:51:17;;;;;;;9.03;6.00;;;12.90;99.90;;;;;;6308582;22;20391;-65
2022/09/21 07:53:44;;;;;;;10.43;5.60;;;13.10;99.90;;;;;;6308544;22;20450;-65
2022/09/21 07:56:13;;;;;;;9.27;5.40;;;13.40;99.90;;;;;;6309170;22;20844;-65
2022/09/21 08:01:27;;;;;;;8.37;6.10;;;13.60;99.90;;;;;;6308597;22;20499;-65
2022/09/21 08:03:57;;;;;;;7.43;4.50;;;13.90;99.90;;;;;;6308481;22;20449;-64
2022/09/21 08:06:29;;;;;;;13.70;5.50;;;13.60;99.90;;;;;;6309233;22;20719;-65
2022/09/21 08:08:56;;;;;;;7.63;5.40;;;13.90;99.90;;;;;;6309557;22;20754;-64
2022/09/21 08:11:24;;;;;;;7.33;4.80;;;14.40;99.90;;;;;;6308524;22;20524;-64
2022/09/21 08:13:54;;;;;;;5.90;4.70;;;14.40;99.90;;;;;;6310315;22;20821;-64
2022/09/21 08:16:26;;;;;;;6.53;5.13;;;14.70;99.90;;;;;;6310580;22;20452;-64
2022/09/21 08:19:01;;;;;;;7.80;5.10;;;15.00;99.90;;;;;;6310832;22;20477;-64
2022/09/21 08:21:28;;;;;;;5.20;4.70;;;15.10;99.90;;;;;;6308840;22;20420;-64
2022/09/21 08:24:04;;;;;;;10.30;4.43;;;15.30;99.90;;;;;;6310854;22;20791;-64
2022/09/21 08:26:32;;;;;;;6.00;4.33;;;15.20;99.90;;;;;;6309860;22;20514;-64
2022/09/21 08:29:02;;;;;;;7.40;4.50;;;15.20;99.90;;;;;;6310700;22;20451;-64
2022/09/21 08:31:29;;;;;;;7.57;4.53;;;15.50;99.90;;;;;;6310382;22;20439;-63
2022/09/21 08:33:59;;;;;;;5.17;4.47;;;15.90;99.90;;;;;;6310419;22;20472;-64
2022/09/21 08:36:27;;;;;;;9.17;4.47;;;16.30;99.90;;;;;;6310653;22;20786;-64
2022/09/21 08:38:55;;;;;;;7.50;3.33;;;16.70;99.90;;;;;;6310903;22;20506;-63
2022/09/21 08:41:28;;;;;;;7.93;3.67;;;16.80;99.90;;;;;;6310796;22;20424;-63
2022/09/21 08:43:59;;;;;;;4.53;2.70;;;17.30;99.90;;;;;;6310715;22;20387;-63
2022/09/21 08:46:29;;;;;;;5.90;2.97;;;17.60;99.90;;;;;;6310365;22;20398;-63
2022/09/21 08:49:02;;;;;;;5.23;2.73;;;17.80;99.90;;;;;;6311088;22;20732;-63
2022/09/21 08:51:33;;;;;;;3.50;3.13;;;18.20;99.90;;;;;;6309543;22;20387;-63
2022/09/21 08:54:04;;;;;;;6.70;3.23;;;18.60;99.90;;;;;;6310690;22;20425;-63
2022/09/21 08:56:31;;;;;;;6.33;2.50;;;18.60;99.90;;;;;;6310047;22;20426;-63
2022/09/21 08:58:59;;;;;;;3.60;2.50;;;18.90;99.90;;;;;;6310779;22;20424;-63
2022/09/21 09:01:39;;;;;;;5.53;2.77;;;19.10;99.90;;;;;;6310015;22;20420;-64
2022/09/21 09:04:28;;;;;;;7.23;2.60;;;19.00;99.90;;;;;;6310666;22;20461;-64
2022/09/21 09:07:09;;;;;;;4.50;2.20;;;17.90;99.90;;;;;;6310171;22;20928;-64
2022/09/21 09:10:07;;;;;;;3.83;2.20;;;16.80;99.90;;;;;;6310615;22;20518;-64
2022/09/21 09:12:47;;;;;;;5.47;2.63;;;16.50;99.90;;;;;;6303207;22;20522;-64
2022/09/21 09:15:26;;;;;;;3.67;2.60;;;16.10;99.90;;;;;;6310466;22;20828;-64
2022/09/21 09:18:04;;;;;;;8.17;2.43;;;15.90;99.90;;;;;;6309926;22;20427;-64
2022/09/21 09:20:36;;;;;;;4.37;2.60;;;15.60;99.90;;;;;;6310070;22;20417;-64
2022/09/21 09:23:10;;;;;;;5.73;2.77;;;15.50;99.90;;;;;;6309862;22;20520;-64
2022/09/21 09:25:41;;;;;;;11.13;2.50;;;15.40;99.90;;;;;;6310122;22;20752;-64
2022/09/21 09:28:23;;;;;;;7.90;3.37;;;15.30;99.90;;;;;;6310131;22;20397;-64
2022/09/21 09:30:56;;;;;;;6.57;3.00;;;15.20;99.90;;;;;;6310100;22;20395;-64
2022/09/21 09:33:28;;;;;;;5.70;4.00;;;15.10;99.90;;;;;;6309367;22;20519;-64
2022/09/21 09:36:03;;;;;;;8.87;4.20;;;15.00;99.90;;;;;;6310525;22;20733;-63
2022/09/21 09:38:36;;;;;;;8.30;4.23;;;14.90;99.90;;;;;;6309961;22;20423;-64
2022/09/21 09:41:31;;;;;;;6.50;4.50;;;14.90;99.90;;;;;;6279362;22;20893;-64
2022/09/21 09:44:14;;;;;;;8.90;4.60;;;14.90;99.90;;;;;;6278843;22;20914;-64
2022/09/21 09:46:52;;;;;;;9.23;4.90;;;14.90;99.90;;;;;;6279978;22;20495;-64
2022/09/21 09:49:35;;;;;;;4.90;3.20;;;15.00;99.90;;;;;;6279366;22;20722;-64
2022/09/21 09:52:06;;;;;;;4.30;2.83;;;15.10;99.90;;;;;;6279407;22;20413;-64
2022/09/21 09:54:37;;;;;;;3.00;1.90;;;15.10;99.90;;;;;;6278497;22;20430;-64
2022/09/21 09:57:06;;;;;;;5.37;2.70;;;15.20;99.90;;;;;;6279090;22;20428;-64
2022/09/21 09:59:41;;;;;;;4.80;2.57;;;15.40;99.90;;;;;;6279258;22;20745;-64
2022/09/21 10:02:20;;;;;;;3.33;2.57;;;15.50;99.90;;;;;;6278932;22;20425;-64
2022/09/21 10:05:04;;;;;;;3.50;2.17;;;15.60;99.90;;;;;;6278305;22;20471;-64
2022/09/21 10:07:39;;;;;;;2.87;2.20;;;15.70;99.90;;;;;;6278582;22;20456;-64
2022/09/21 10:10:31;;;;;;;4.60;2.30;;;15.80;99.90;;;;;;6277956;22;20529;-64
2022/09/21 10:13:11;;;;;;;2.47;2.17;;;15.80;99.90;;;;;;6278685;22;20486;-64
2022/09/21 10:15:48;;;;;;;3.70;2.13;;;15.80;99.90;;;;;;6278725;22;20969;-64
2022/09/21 10:18:20;;;;;;;4.37;2.60;;;15.60;99.90;;;;;;6278435;22;20824;-64
2022/09/21 10:21:03;;;;;;;4.87;2.90;;;15.30;99.90;;;;;;6278684;22;20521;-64
2022/09/21 10:23:32;;;;;;;3.97;2.50;;;15.50;99.90;;;;;;6278800;22;20519;-64
2022/09/21 10:26:03;;;;;;;7.40;3.07;;;15.40;99.90;;;;;;6277374;22;20420;-64
2022/09/21 10:28:32;;;;;;;5.63;2.80;;;15.10;99.90;;;;;;6278225;22;20418;-64
2022/09/21 10:31:22;;;;;;;5.40;2.83;;;15.20;99.90;;;;;;6278798;22;20421;-64
2022/09/21 10:33:52;;;;;;;3.17;2.20;;;15.30;99.90;;;;;;6278354;22;20520;-64
2022/09/21 10:36:27;;;;;;;2.90;2.53;;;15.10;99.90;;;;;;6278877;22;20449;-64
2022/09/21 10:39:23;;;;;;;6.63;2.50;;;15.10;99.90;;;;;;6280825;22;20703;-64
2022/09/21 10:41:57;;;;;;;3.80;2.07;;;15.10;99.90;;;;;;6308870;22;20457;-64
2022/09/21 10:44:36;;;;;;;3.37;2.20;;;15.60;99.90;;;;;;6309197;22;20420;-64
2022/09/21 10:47:15;;;;;;;3.67;2.73;;;15.90;99.90;;;;;;6308342;22;20420;-64
2022/09/21 10:49:47;;;;;;;3.70;3.13;;;16.00;99.90;;;;;;6308736;22;20766;-64
2022/09/21 10:52:14;;;;;;;4.30;2.13;;;16.00;99.90;;;;;;6309195;22;20723;-64
2022/09/21 10:54:47;;;;;;;3.63;2.00;;;16.50;99.90;;;;;;6308202;22;20470;-64
2022/09/21 10:57:18;;;;;;;3.50;2.10;;;17.20;99.90;;;;;;6309271;22;20834;-64
2022/09/21 10:59:45;;;;;;;4.17;2.27;;;17.50;99.90;;;;;;6308042;22;20439;-65
2022/09/21 11:02:34;;;;;;;4.57;2.20;;;17.50;99.90;;;;;;6309183;22;20416;-64
2022/09/21 11:05:12;;;;;;;2.73;2.10;;;17.40;99.90;;;;;;6309659;22;20407;-64
2022/09/21 11:07:47;;;;;;;4.10;2.67;;;17.40;99.90;;;;;;6308756;22;20458;-65
2022/09/21 11:10:24;;;;;;;4.00;2.10;;;17.60;99.90;;;;;;6309681;22;20416;-65
2022/09/21 11:13:08;;;;;;;3.03;2.27;;;18.80;99.90;;;;;;6309630;22;20435;-65
2022/09/21 11:15:46;;;;;;;3.40;2.23;;;19.90;99.90;;;;;;6309217;22;20485;-66
2022/09/21 11:18:20;;;;;;;3.03;2.23;;;19.90;99.90;;;;;;6308985;22;20787;-67
2022/09/21 11:20:56;;;;;;;4.47;2.40;;;19.50;99.90;;;;;;6309302;22;20434;-67
2022/09/21 11:23:42;;;;;;;3.33;2.00;;;19.00;99.90;;;;;;6309438;22;20462;-67
2022/09/21 11:26:17;;;;;;;4.50;2.27;;;18.30;99.90;;;;;;6308518;22;20858;-67
2022/09/21 11:28:49;;;;;;;3.57;2.07;;;17.80;99.90;;;;;;6307554;22;20418;-67
2022/09/21 11:31:44;;;;;;;3.50;2.17;;;17.60;99.90;;;;;;6308765;22;20391;-67
2022/09/21 11:34:59;;;;;;;4.80;2.03;;;17.50;99.90;;;;;;6306303;22;20429;-67
2022/09/21 11:37:38;;;;;;;4.33;2.27;;;17.40;99.90;;;;;;6266667;22;20751;-67
2022/09/21 11:40:24;;;;;;;3.20;2.00;;;17.40;99.90;;;;;;6306326;22;20512;-67
2022/09/21 11:43:05;;;;;;;2.63;2.40;;;17.30;99.90;;;;;;6307242;22;20416;-67
2022/09/21 11:45:56;;;;;;;2.97;1.90;;;17.40;99.90;;;;;;6307196;22;20454;-67
2022/09/21 11:48:34;;;;;;;3.37;2.00;;;17.40;99.90;;;;;;6309914;22;20415;-66
2022/09/21 11:51:13;;;;;;;2.80;1.73;;;17.30;99.90;;;;;;6310236;22;20411;-66
2022/09/21 11:53:55;;;;;;;4.37;2.97;;;17.50;99.90;;;;;;6311040;22;20423;-66
2022/09/21 11:56:42;;;;;;;4.23;2.13;;;17.60;99.90;;;;;;6309832;22;20452;-66
2022/09/21 11:59:49;;;;;;;3.10;2.20;;;17.50;99.90;;;;;;6310899;22;20785;-66
2022/09/21 12:02:34;;;;;;;2.90;2.10;;;17.50;99.90;;;;;;6303790;22;20478;-66
2022/09/21 12:05:12;;;;;;;4.70;2.23;;;17.70;99.90;;;;;;6311016;22;20412;-66
2022/09/21 12:08:02;;;;;;;5.47;3.00;;;17.80;99.90;;;;;;6309787;22;20837;-67
2022/09/21 12:10:46;;;;;;;4.10;2.63;;;18.10;99.90;;;;;;6309548;22;20420;-66
2022/09/21 12:13:23;;;;;;;2.70;2.00;;;18.40;99.90;;;;;;6310046;22;20422;-66
2022/09/21 12:16:03;;;;;;;5.07;2.30;;;18.80;99.90;;;;;;6310184;22;20447;-66
2022/09/21 12:18:47;;;;;;;3.63;2.30;;;19.50;99.90;;;;;;6310889;22;20419;-66
2022/09/21 12:21:21;;;;;;;3.30;2.10;;;20.40;99.90;;;;;;6310752;22;20477;-66
2022/09/21 12:23:55;;;;;;;4.07;2.30;;;21.10;99.90;;;;;;6310966;22;20415;-66
2022/09/21 12:26:29;;;;;;;3.33;2.33;;;21.70;99.90;;;;;;6310657;22;20845;-67
2022/09/21 12:29:01;;;;;;;3.50;2.27;;;21.80;99.90;;;;;;6311009;22;20419;-66
2022/09/21 12:31:39;;;;;;;3.23;2.17;;;22.10;99.90;;;;;;6309955;22;20419;-65
2022/09/21 12:34:17;;;;;;;2.37;1.67;;;22.50;99.90;;;;;;6310580;22;20506;-65
2022/09/21 12:36:54;;;;;;;3.60;2.70;;;22.60;99.90;;;;;;6310702;22;20505;-65
2022/09/21 12:39:27;;;;;;;2.50;1.80;;;22.80;99.90;;;;;;6310567;22;20483;-65
2022/09/21 12:42:03;;;;;;;2.70;2.00;;;22.90;99.90;;;;;;6309485;22;20401;-65
2022/09/21 12:44:50;;;;;;;2.63;2.00;;;22.40;99.90;;;;;;6309275;22;20423;-65
2022/09/21 12:47:28;;;;;;;2.93;2.10;;;22.00;99.90;;;;;;6309202;22;20420;-65
2022/09/21 12:49:59;;;;;;;2.27;2.07;;;20.50;99.90;;;;;;6309472;22;20459;-66
2022/09/21 12:52:31;;;;;;;4.10;2.67;;;20.40;99.90;;;;;;6308765;22;20479;-65
2022/09/21 12:55:08;;;;;;;4.30;2.20;;;20.50;99.90;;;;;;6309888;22;20482;-65
2022/09/21 12:57:49;;;;;;;2.00;1.80;;;21.60;99.90;;;;;;6308924;22;20416;-65
2022/09/21 13:00:19;;;;;;;2.83;2.50;;;21.10;99.90;;;;;;6310565;22;20442;-65
2022/09/21 13:02:54;;;;;;;3.60;2.30;;;21.10;99.90;;;;;;6310028;22;20694;-65
2022/09/21 13:05:36;;;;;;;2.50;1.87;;;20.70;99.90;;;;;;6310419;22;20418;-65
2022/09/21 13:08:08;;;;;;;2.60;1.73;;;20.00;99.90;;;;;;6310386;22;20420;-65
2022/09/21 13:10:41;;;;;;;2.27;2.00;;;21.10;99.90;;;;;;6310215;22;20434;-65
2022/09/21 13:13:25;;;;;;;2.33;2.13;;;21.60;99.90;;;;;;6310652;22;20423;-65
2022/09/21 13:15:53;;;;;;;3.70;2.33;;;21.90;99.90;;;;;;6309844;22;20448;-65
2022/09/21 13:18:31;;;;;;;2.80;2.00;;;21.80;99.90;;;;;;6309817;22;20850;-65
2022/09/21 13:21:00;;;;;;;3.30;2.03;;;21.70;99.90;;;;;;6310531;22;20423;-66
2022/09/21 13:23:35;;;;;;;3.00;2.50;;;21.70;99.90;;;;;;6309494;22;20716;-65
2022/09/21 13:26:10;;;;;;;3.40;2.00;;;20.90;99.90;;;;;;6310229;22;20857;-65